createdAt,value
2023-05-02T00:00:46.654Z,0.00
2023-05-02T00:01:46.773Z,0.00
2023-05-02T00:02:46.946Z,0.00
2023-05-02T00:03:46.160Z,0.00
2023-05-02T00:04:46.040Z,0.00
2023-05-02T00:05:46.058Z,0.00
2023-05-02T00:06:46.148Z,0.00
2023-05-02T00:07:46.014Z,0.00
2023-05-02T00:08:46.148Z,0.00
2023-05-02T00:09:46.242Z,0.00
2023-05-02T00:10:46.298Z,0.00
2023-05-02T00:11:46.341Z,0.00
2023-05-02T00:12:46.392Z,0.00
2023-05-02T00:13:46.461Z,0.00
2023-05-02T00:14:46.516Z,0.00
2023-05-02T00:15:46.573Z,0.00
2023-05-02T00:16:46.070Z,0.00
2023-05-02T00:17:46.757Z,0.00
2023-05-02T00:18:46.069Z,0.00
2023-05-02T00:19:45.933Z,0.00
2023-05-02T00:20:46.928Z,0.00
2023-05-02T00:21:46.872Z,0.00
2023-05-02T00:22:46.762Z,0.00
2023-05-02T00:23:46.914Z,0.00
2023-05-02T00:24:46.574Z,0.00
2023-05-02T00:25:46.665Z,0.00
2023-05-02T00:26:46.884Z,0.00
2023-05-02T00:27:46.986Z,0.00
2023-05-02T00:28:46.901Z,0.00
2023-05-02T00:29:46.848Z,0.00
2023-05-02T00:30:47.048Z,0.00
2023-05-02T00:31:46.910Z,0.00
2023-05-02T00:32:46.003Z,0.00
2023-05-02T00:33:45.839Z,0.00
2023-05-02T00:34:45.874Z,0.00
2023-05-02T00:35:45.827Z,0.00
2023-05-02T00:36:45.855Z,0.00
2023-05-02T00:37:45.821Z,0.00
2023-05-02T00:38:45.816Z,0.00
2023-05-02T00:39:45.802Z,0.00
2023-05-02T00:40:45.822Z,0.00
2023-05-02T00:41:45.837Z,0.00
2023-05-02T00:42:45.837Z,0.00
2023-05-02T00:43:45.863Z,0.00
2023-05-02T00:44:45.899Z,0.00
2023-05-02T00:45:45.895Z,0.00
2023-05-02T00:46:45.944Z,0.00
2023-05-02T00:47:45.974Z,0.00
2023-05-02T00:48:45.914Z,0.00
2023-05-02T00:49:46.086Z,0.00
2023-05-02T00:50:46.098Z,0.00
2023-05-02T00:51:46.100Z,0.00
2023-05-02T00:52:46.097Z,0.00
2023-05-02T00:53:46.105Z,0.00
2023-05-02T00:54:46.117Z,0.00
2023-05-02T00:55:46.117Z,0.00
2023-05-02T00:56:46.135Z,0.00
2023-05-02T00:57:46.127Z,0.00
2023-05-02T00:58:46.115Z,0.00
2023-05-02T00:59:46.153Z,0.00
2023-05-02T01:00:45.886Z,0.00
2023-05-02T01:01:46.192Z,0.00
2023-05-02T01:02:46.239Z,0.00
2023-05-02T01:03:45.711Z,0.00
2023-05-02T01:04:45.624Z,0.00
2023-05-02T01:05:45.657Z,0.00
2023-05-02T01:06:45.808Z,0.00
2023-05-02T01:07:45.601Z,0.00
2023-05-02T01:08:45.620Z,0.00
2023-05-02T01:09:45.930Z,0.00
2023-05-02T01:10:45.605Z,0.00
2023-05-02T01:11:45.612Z,0.00
2023-05-02T01:12:45.629Z,0.00
2023-05-02T01:13:45.626Z,0.00
2023-05-02T01:14:45.652Z,0.00
2023-05-02T01:15:45.662Z,0.00
2023-05-02T01:16:45.805Z,0.00
2023-05-02T01:17:45.682Z,0.00
2023-05-02T01:18:45.556Z,0.00
2023-05-02T01:19:45.551Z,0.00
2023-05-02T01:20:45.682Z,0.00
2023-05-02T01:21:45.679Z,0.00
2023-05-02T01:22:45.688Z,0.00
2023-05-02T01:23:45.692Z,0.00
2023-05-02T01:24:45.499Z,0.00
2023-05-02T01:25:45.712Z,0.00
2023-05-02T01:26:45.729Z,0.00
2023-05-02T01:27:45.722Z,0.00
2023-05-02T01:28:45.736Z,0.00
2023-05-02T01:29:45.732Z,0.00
2023-05-02T01:30:45.544Z,0.00
2023-05-02T01:31:45.471Z,0.00
2023-05-02T01:32:45.511Z,0.00
2023-05-02T01:33:45.557Z,0.00
2023-05-02T01:34:45.573Z,0.00
2023-05-02T01:35:45.443Z,0.00
2023-05-02T01:36:45.602Z,0.00
2023-05-02T01:37:45.424Z,0.00
2023-05-02T01:38:45.417Z,0.00
2023-05-02T01:39:45.412Z,0.00
2023-05-02T01:40:45.422Z,0.00
2023-05-02T01:41:45.428Z,0.00
2023-05-02T01:42:45.649Z,0.00
2023-05-02T01:43:45.654Z,0.00
2023-05-02T01:44:45.658Z,0.00
2023-05-02T01:45:45.695Z,0.00
2023-05-02T01:46:45.702Z,0.00
2023-05-02T01:47:45.773Z,0.00
2023-05-02T01:48:45.706Z,0.00
2023-05-02T01:49:45.903Z,0.00
2023-05-02T01:50:45.904Z,0.00
2023-05-02T01:51:45.916Z,0.00
2023-05-02T01:52:45.915Z,0.00
2023-05-02T01:53:45.362Z,0.00
2023-05-02T01:54:45.502Z,0.00
2023-05-02T01:55:45.919Z,0.00
2023-05-02T01:56:46.143Z,0.00
2023-05-02T01:57:46.145Z,0.00
2023-05-02T01:58:46.150Z,0.00
2023-05-02T01:59:46.152Z,0.00
2023-05-02T02:00:45.452Z,0.00
2023-05-02T02:01:45.376Z,0.00
2023-05-02T02:02:45.319Z,0.00
2023-05-02T02:03:45.344Z,0.00
2023-05-02T02:04:45.573Z,0.00
2023-05-02T02:05:45.403Z,0.00
2023-05-02T02:06:45.570Z,0.00
2023-05-02T02:07:45.390Z,0.00
2023-05-02T02:08:45.380Z,0.00
2023-05-02T02:09:45.411Z,0.00
2023-05-02T02:10:45.417Z,0.00
2023-05-02T02:11:45.418Z,0.00
2023-05-02T02:12:45.434Z,0.00
2023-05-02T02:13:45.429Z,0.00
2023-05-02T02:14:45.444Z,0.00
2023-05-02T02:15:45.246Z,0.00
2023-05-02T02:16:45.493Z,0.00
2023-05-02T02:17:45.146Z,0.00
2023-05-02T02:18:45.400Z,0.00
2023-05-02T02:19:45.471Z,0.00
2023-05-02T02:20:45.474Z,0.00
2023-05-02T02:21:45.487Z,0.00
2023-05-02T02:22:45.116Z,0.00
2023-05-02T02:23:45.497Z,0.00
2023-05-02T02:24:45.510Z,0.00
2023-05-02T02:25:45.513Z,0.00
2023-05-02T02:26:45.516Z,0.00
2023-05-02T02:27:45.542Z,0.00
2023-05-02T02:28:45.132Z,0.00
2023-05-02T02:29:45.069Z,0.00
2023-05-02T02:30:45.184Z,0.00
2023-05-02T02:31:45.049Z,0.00
2023-05-02T02:32:45.343Z,0.00
2023-05-02T02:33:45.370Z,0.00
2023-05-02T02:34:45.422Z,0.00
2023-05-02T02:35:45.183Z,0.00
2023-05-02T02:36:45.186Z,0.00
2023-05-02T02:37:45.193Z,0.00
2023-05-02T02:38:45.206Z,0.00
2023-05-02T02:39:45.202Z,0.00
2023-05-02T02:40:45.227Z,0.00
2023-05-02T02:41:45.427Z,0.00
2023-05-02T02:42:45.432Z,0.00
2023-05-02T02:43:45.443Z,0.00
2023-05-02T02:44:45.451Z,0.00
2023-05-02T02:45:45.473Z,0.00
2023-05-02T02:46:45.755Z,0.00
2023-05-02T02:47:45.113Z,0.00
2023-05-02T02:48:45.730Z,0.00
2023-05-02T02:49:45.332Z,0.00
2023-05-02T02:50:44.953Z,0.00
2023-05-02T02:51:44.898Z,0.00
2023-05-02T02:52:44.874Z,0.00
2023-05-02T02:53:45.820Z,0.00
2023-05-02T02:54:45.502Z,0.00
2023-05-02T02:55:45.887Z,0.00
2023-05-02T02:56:44.916Z,0.00
2023-05-02T02:57:44.935Z,0.00
2023-05-02T02:58:44.844Z,0.00
2023-05-02T02:59:44.899Z,0.00
2023-05-02T03:00:44.999Z,0.00
2023-05-02T03:01:44.981Z,0.00
2023-05-02T03:02:44.994Z,0.00
2023-05-02T03:03:45.020Z,0.00
2023-05-02T03:04:44.963Z,0.00
2023-05-02T03:05:44.989Z,0.00
2023-05-02T03:06:44.828Z,0.00
2023-05-02T03:07:44.991Z,0.00
2023-05-02T03:08:44.988Z,0.00
2023-05-02T03:09:45.085Z,0.00
2023-05-02T03:10:45.001Z,0.00
2023-05-02T03:11:44.804Z,0.00
2023-05-02T03:12:45.014Z,0.00
2023-05-02T03:13:45.024Z,0.00
2023-05-02T03:14:45.029Z,0.00
2023-05-02T03:15:45.068Z,0.00
2023-05-02T03:16:45.156Z,0.00
2023-05-02T03:17:44.912Z,0.00
2023-05-02T03:18:44.796Z,0.00
2023-05-02T03:19:45.071Z,0.00
2023-05-02T03:20:45.275Z,0.00
2023-05-02T03:21:45.288Z,0.00
2023-05-02T03:22:45.290Z,0.00
2023-05-02T03:23:44.690Z,0.00
2023-05-02T03:24:44.698Z,0.00
2023-05-02T03:25:44.714Z,0.00
2023-05-02T03:26:44.666Z,0.00
2023-05-02T03:27:44.737Z,0.00
2023-05-02T03:28:44.713Z,0.00
2023-05-02T03:29:44.725Z,0.00
2023-05-02T03:30:44.761Z,0.00
2023-05-02T03:31:44.784Z,0.00
2023-05-02T03:32:44.832Z,0.00
2023-05-02T03:33:44.965Z,4.00
2023-05-02T03:34:44.966Z,1.00
2023-05-02T03:35:44.973Z,0.00
2023-05-02T03:36:44.999Z,1.00
2023-05-02T03:37:45.507Z,1.00
2023-05-02T03:38:44.986Z,5.00
2023-05-02T03:39:45.204Z,10.00
2023-05-02T03:40:45.209Z,10.00
2023-05-02T03:41:44.806Z,6.00
2023-05-02T03:42:45.015Z,6.00
2023-05-02T03:43:45.250Z,6.00
2023-05-02T03:44:45.448Z,27.00
2023-05-02T03:45:47.574Z,23.00
2023-05-02T03:46:45.368Z,27.00
2023-05-02T03:47:44.864Z,20.00
2023-05-02T03:48:45.424Z,20.00
2023-05-02T03:49:44.654Z,30.00
2023-05-02T03:50:44.649Z,39.00
2023-05-02T03:51:45.283Z,23.00
2023-05-02T03:52:44.492Z,40.00
2023-05-02T03:53:44.521Z,46.00
2023-05-02T03:54:44.520Z,60.00
2023-05-02T03:55:44.510Z,78.00
2023-05-02T03:56:44.570Z,82.00
2023-05-02T03:57:44.622Z,88.00
2023-05-02T03:58:44.724Z,80.00
2023-05-02T03:59:44.515Z,132.00
2023-05-02T04:00:44.813Z,152.00
2023-05-02T04:01:44.586Z,95.00
2023-05-02T04:02:45.071Z,136.00
2023-05-02T04:03:45.099Z,187.00
2023-05-02T04:04:44.679Z,183.00
2023-05-02T04:05:44.959Z,203.00
2023-05-02T04:06:45.193Z,166.00
2023-05-02T04:07:44.569Z,184.00
2023-05-02T04:08:44.566Z,186.00
2023-05-02T04:09:44.576Z,224.00
2023-05-02T04:10:44.601Z,236.00
2023-05-02T04:11:45.254Z,202.00
2023-05-02T04:12:44.407Z,176.00
2023-05-02T04:13:44.399Z,243.00
2023-05-02T04:14:44.619Z,254.00
2023-05-02T04:15:44.861Z,316.00
2023-05-02T04:16:45.323Z,369.00
2023-05-02T04:17:44.886Z,430.00
2023-05-02T04:18:45.072Z,385.00
2023-05-02T04:19:45.246Z,356.00
2023-05-02T04:20:44.465Z,271.00
2023-05-02T04:21:44.290Z,240.00
2023-05-02T04:22:44.374Z,347.00
2023-05-02T04:23:44.307Z,366.00
2023-05-02T04:24:44.289Z,351.00
2023-05-02T04:25:44.372Z,306.00
2023-05-02T04:26:44.330Z,293.00
2023-05-02T04:27:44.316Z,263.00
2023-05-02T04:28:44.355Z,248.00
2023-05-02T04:29:44.681Z,244.00
2023-05-02T04:30:44.339Z,245.00
2023-05-02T04:31:44.619Z,257.00
2023-05-02T04:32:44.361Z,277.00
2023-05-02T04:33:44.759Z,288.00
2023-05-02T04:34:44.744Z,283.00
2023-05-02T04:35:44.549Z,277.00
2023-05-02T04:36:44.545Z,261.00
2023-05-02T04:37:44.316Z,285.00
2023-05-02T04:38:44.987Z,300.00
2023-05-02T04:39:44.771Z,294.00
2023-05-02T04:40:44.585Z,333.00
2023-05-02T04:41:44.788Z,320.00
2023-05-02T04:42:45.085Z,307.00
2023-05-02T04:43:44.998Z,299.00
2023-05-02T04:44:45.155Z,301.00
2023-05-02T04:45:44.432Z,334.00
2023-05-02T04:46:45.166Z,251.00
2023-05-02T04:47:45.242Z,418.00
2023-05-02T04:48:44.093Z,300.00
2023-05-02T04:49:44.262Z,251.00
2023-05-02T04:50:44.084Z,455.00
2023-05-02T04:51:44.087Z,526.00
2023-05-02T04:52:45.551Z,410.00
2023-05-02T04:53:44.167Z,561.00
2023-05-02T04:54:44.247Z,577.00
2023-05-02T04:55:44.078Z,572.00
2023-05-02T04:56:44.269Z,655.00
2023-05-02T04:57:44.276Z,558.00
2023-05-02T04:58:44.295Z,450.00
2023-05-02T04:59:44.291Z,490.00
2023-05-02T05:00:44.297Z,587.00
2023-05-02T05:01:44.318Z,399.00
2023-05-02T05:02:44.152Z,540.00
2023-05-02T05:03:44.338Z,503.00
2023-05-02T05:04:44.323Z,490.00
2023-05-02T05:05:44.371Z,533.00
2023-05-02T05:06:44.364Z,621.00
2023-05-02T05:07:43.992Z,499.00
2023-05-02T05:08:44.177Z,605.00
2023-05-02T05:09:43.956Z,810.00
2023-05-02T05:10:44.361Z,862.00
2023-05-02T05:11:44.369Z,759.00
2023-05-02T05:12:44.168Z,1092.00
2023-05-02T05:13:44.386Z,1242.00
2023-05-02T05:14:44.398Z,1191.00
2023-05-02T05:15:44.547Z,1270.00
2023-05-02T05:16:44.518Z,1030.00
2023-05-02T05:17:44.478Z,863.00
2023-05-02T05:18:44.425Z,813.00
2023-05-02T05:19:43.881Z,819.00
2023-05-02T05:20:43.888Z,531.00
2023-05-02T05:21:43.861Z,551.00
2023-05-02T05:22:44.029Z,1028.00
2023-05-02T05:23:43.930Z,775.00
2023-05-02T05:24:43.858Z,1074.00
2023-05-02T05:25:45.776Z,1322.00
2023-05-02T05:26:43.854Z,925.00
2023-05-02T05:27:43.874Z,1401.00
2023-05-02T05:28:43.869Z,1183.00
2023-05-02T05:29:43.885Z,1375.00
2023-05-02T05:30:43.898Z,1128.00
2023-05-02T05:31:43.970Z,1180.00
2023-05-02T05:32:43.968Z,1036.00
2023-05-02T05:33:43.932Z,1454.00
2023-05-02T05:34:43.917Z,1651.00
2023-05-02T05:35:43.922Z,2017.00
2023-05-02T05:36:43.784Z,1402.00
2023-05-02T05:37:43.890Z,1690.00
2023-05-02T05:38:43.747Z,1239.00
2023-05-02T05:39:43.943Z,1436.00
2023-05-02T05:40:43.995Z,1712.00
2023-05-02T05:41:44.011Z,1858.00
2023-05-02T05:42:44.009Z,2485.00
2023-05-02T05:43:43.862Z,1481.00
2023-05-02T05:44:44.036Z,1527.00
2023-05-02T05:45:44.029Z,1879.00
2023-05-02T05:46:44.049Z,1396.00
2023-05-02T05:47:44.219Z,1803.00
2023-05-02T05:48:44.208Z,2357.00
2023-05-02T05:49:44.222Z,2544.00
2023-05-02T05:50:43.682Z,1699.00
2023-05-02T05:51:43.708Z,1798.00
2023-05-02T05:52:43.874Z,856.00
2023-05-02T05:53:43.856Z,1219.00
2023-05-02T05:54:43.936Z,1908.00
2023-05-02T05:55:44.001Z,1482.00
2023-05-02T05:56:44.062Z,2232.00
2023-05-02T05:57:44.127Z,2337.00
2023-05-02T05:58:43.637Z,2550.00
2023-05-02T05:59:43.929Z,2354.00
2023-05-02T06:00:44.143Z,2098.00
2023-05-02T06:01:44.301Z,2039.00
2023-05-02T06:02:44.410Z,1884.00
2023-05-02T06:03:43.910Z,2391.00
2023-05-02T06:04:43.945Z,2712.00
2023-05-02T06:05:44.124Z,2442.00
2023-05-02T06:06:44.387Z,2088.00
2023-05-02T06:07:43.864Z,2356.00
2023-05-02T06:08:43.931Z,2308.00
2023-05-02T06:09:43.553Z,3648.00
2023-05-02T06:10:43.556Z,2727.00
2023-05-02T06:11:44.222Z,2828.00
2023-05-02T06:12:43.529Z,2309.00
2023-05-02T06:13:43.653Z,1984.00
2023-05-02T06:14:43.584Z,1513.00
2023-05-02T06:15:44.387Z,1873.00
2023-05-02T06:16:43.780Z,1509.00
2023-05-02T06:17:43.550Z,1377.00
2023-05-02T06:18:43.487Z,1703.00
2023-05-02T06:19:43.492Z,1526.00
2023-05-02T06:20:43.486Z,1292.00
2023-05-02T06:21:43.545Z,2055.00
2023-05-02T06:22:43.498Z,1888.00
2023-05-02T06:23:43.464Z,1108.00
2023-05-02T06:24:43.465Z,931.00
2023-05-02T06:25:43.458Z,1996.00
2023-05-02T06:26:43.587Z,2010.00
2023-05-02T06:27:43.555Z,1342.00
2023-05-02T06:28:43.411Z,1676.00
2023-05-02T06:29:43.580Z,1780.00
2023-05-02T06:30:43.595Z,1570.00
2023-05-02T06:31:43.641Z,1578.00
2023-05-02T06:32:43.401Z,1376.00
2023-05-02T06:33:43.632Z,1383.00
2023-05-02T06:34:43.369Z,1157.00
2023-05-02T06:35:43.381Z,922.00
2023-05-02T06:36:43.381Z,803.00
2023-05-02T06:37:43.430Z,1760.00
2023-05-02T06:38:43.484Z,1519.00
2023-05-02T06:39:43.654Z,1693.00
2023-05-02T06:40:43.694Z,2521.00
2023-05-02T06:41:43.409Z,2348.00
2023-05-02T06:42:43.739Z,2736.00
2023-05-02T06:43:43.723Z,3359.00
2023-05-02T06:44:43.330Z,3403.00
2023-05-02T06:45:43.670Z,2977.00
2023-05-02T06:46:43.792Z,2844.00
2023-05-02T06:47:43.390Z,2926.00
2023-05-02T06:48:43.312Z,2873.00
2023-05-02T06:49:43.324Z,2486.00
2023-05-02T06:50:43.405Z,2308.00
2023-05-02T06:51:43.456Z,2512.00
2023-05-02T06:52:43.935Z,2697.00
2023-05-02T06:53:43.671Z,3098.00
2023-05-02T06:54:43.403Z,3431.00
2023-05-02T06:55:43.663Z,3720.00
2023-05-02T06:56:43.747Z,3811.00
2023-05-02T06:57:43.321Z,3841.00
2023-05-02T06:58:43.651Z,3605.00
2023-05-02T06:59:43.981Z,3310.00
2023-05-02T07:00:43.296Z,3507.00
2023-05-02T07:01:43.224Z,4100.00
2023-05-02T07:02:43.968Z,5566.00
2023-05-02T07:03:43.210Z,5906.00
2023-05-02T07:04:43.741Z,6355.00
2023-05-02T07:05:43.806Z,7901.00
2023-05-02T07:06:43.453Z,11262.00
2023-05-02T07:07:43.168Z,11999.00
2023-05-02T07:08:43.722Z,10309.00
2023-05-02T07:09:44.035Z,8283.00
2023-05-02T07:10:43.336Z,6831.00
2023-05-02T07:11:43.650Z,6142.00
2023-05-02T07:12:43.965Z,7072.00
2023-05-02T07:13:43.181Z,9691.00
2023-05-02T07:14:43.106Z,10412.00
2023-05-02T07:15:43.420Z,11561.00
2023-05-02T07:16:43.242Z,12830.00
2023-05-02T07:17:43.696Z,10254.00
2023-05-02T07:18:43.820Z,13314.00
2023-05-02T07:19:45.373Z,11947.00
2023-05-02T07:20:43.176Z,13730.00
2023-05-02T07:21:43.228Z,14912.00
2023-05-02T07:22:43.092Z,15235.00
2023-05-02T07:23:43.285Z,15697.00
2023-05-02T07:24:43.317Z,11676.00
2023-05-02T07:25:43.386Z,12494.00
2023-05-02T07:26:43.261Z,10758.00
2023-05-02T07:27:43.482Z,10983.00
2023-05-02T07:28:43.153Z,11582.00
2023-05-02T07:29:43.181Z,11759.00
2023-05-02T07:30:43.494Z,12750.00
2023-05-02T07:31:43.707Z,14227.00
2023-05-02T07:32:43.106Z,11358.00
2023-05-02T07:33:42.984Z,9451.00
2023-05-02T07:34:43.752Z,8084.00
2023-05-02T07:35:43.017Z,3942.00
2023-05-02T07:36:43.356Z,6415.00
2023-05-02T07:37:43.087Z,5875.00
2023-05-02T07:38:42.950Z,5866.00
2023-05-02T07:39:43.355Z,9244.00
2023-05-02T07:40:43.671Z,9947.00
2023-05-02T07:41:43.782Z,10476.00
2023-05-02T07:42:43.174Z,7980.00
2023-05-02T07:43:43.504Z,7033.00
2023-05-02T07:44:43.019Z,10790.00
2023-05-02T07:45:42.960Z,12706.00
2023-05-02T07:46:43.051Z,10007.00
2023-05-02T07:47:42.964Z,10418.00
2023-05-02T07:48:43.049Z,10699.00
2023-05-02T07:49:43.043Z,9944.00
2023-05-02T07:50:43.153Z,9778.00
2023-05-02T07:51:42.930Z,9535.00
2023-05-02T07:52:42.845Z,8347.00
2023-05-02T07:53:43.254Z,7966.00
2023-05-02T07:54:42.953Z,5798.00
2023-05-02T07:55:43.171Z,3976.00
2023-05-02T07:56:43.402Z,4813.00
2023-05-02T07:57:43.425Z,6096.00
2023-05-02T07:58:43.169Z,7433.00
2023-05-02T07:59:43.427Z,8346.00
2023-05-02T08:00:43.640Z,9617.00
2023-05-02T08:01:42.904Z,7538.00
2023-05-02T08:02:43.127Z,5410.00
2023-05-02T08:03:42.918Z,4505.00
2023-05-02T08:04:42.981Z,4879.00
2023-05-02T08:05:43.258Z,4210.00
2023-05-02T08:06:43.598Z,3692.00
2023-05-02T08:07:42.805Z,3733.00
2023-05-02T08:08:43.193Z,2845.00
2023-05-02T08:09:43.497Z,2239.00
2023-05-02T08:10:42.777Z,2053.00
2023-05-02T08:11:43.085Z,1950.00
2023-05-02T08:12:43.462Z,1975.00
2023-05-02T08:13:42.703Z,1954.00
2023-05-02T08:14:43.028Z,1909.00
2023-05-02T08:15:43.366Z,2007.00
2023-05-02T08:16:44.132Z,2097.00
2023-05-02T08:17:42.798Z,2026.00
2023-05-02T08:18:42.810Z,2310.00
2023-05-02T08:19:42.655Z,1940.00
2023-05-02T08:20:42.700Z,1990.00
2023-05-02T08:21:42.743Z,2229.00
2023-05-02T08:22:43.025Z,2173.00
2023-05-02T08:23:42.800Z,2455.00
2023-05-02T08:24:43.131Z,2299.00
2023-05-02T08:25:42.911Z,1868.00
2023-05-02T08:26:42.693Z,2325.00
2023-05-02T08:27:43.156Z,2266.00
2023-05-02T08:28:43.052Z,2573.00
2023-05-02T08:29:42.619Z,3035.00
2023-05-02T08:30:42.673Z,2474.00
2023-05-02T08:31:43.245Z,2930.00
2023-05-02T08:32:43.269Z,3082.00
2023-05-02T08:33:42.748Z,3022.00
2023-05-02T08:34:42.658Z,3815.00
2023-05-02T08:35:43.040Z,3400.00
2023-05-02T08:36:42.769Z,3787.00
2023-05-02T08:37:42.622Z,4939.00
2023-05-02T08:38:43.415Z,5726.00
2023-05-02T08:39:42.690Z,6730.00
2023-05-02T08:40:43.396Z,6321.00
2023-05-02T08:41:43.326Z,5902.00
2023-05-02T08:42:42.612Z,4757.00
2023-05-02T08:43:42.929Z,6092.00
2023-05-02T08:44:42.498Z,5847.00
2023-05-02T08:45:42.520Z,6147.00
2023-05-02T08:46:42.523Z,6206.00
2023-05-02T08:47:43.945Z,6185.00
2023-05-02T08:48:42.457Z,5960.00
2023-05-02T08:49:42.712Z,6268.00
2023-05-02T08:50:42.793Z,6475.00
2023-05-02T08:51:42.831Z,6968.00
2023-05-02T08:52:42.458Z,7376.00
2023-05-02T08:53:42.936Z,7359.00
2023-05-02T08:54:43.008Z,7231.00
2023-05-02T08:55:42.975Z,7287.00
2023-05-02T08:56:42.440Z,7470.00
2023-05-02T08:57:42.457Z,7464.00
2023-05-02T08:58:42.553Z,7728.00
2023-05-02T08:59:42.851Z,8121.00
2023-05-02T09:00:42.532Z,8300.00
2023-05-02T09:01:42.469Z,8527.00
2023-05-02T09:02:42.563Z,7555.00
2023-05-02T09:03:43.116Z,7005.00
2023-05-02T09:04:43.890Z,7656.00
2023-05-02T09:05:42.371Z,7674.00
2023-05-02T09:06:42.413Z,8437.00
2023-05-02T09:07:42.370Z,8816.00
2023-05-02T09:08:42.603Z,9147.00
2023-05-02T09:09:42.389Z,9729.00
2023-05-02T09:10:42.409Z,10432.00
2023-05-02T09:11:42.423Z,9769.00
2023-05-02T09:12:42.292Z,11286.00
2023-05-02T09:13:42.642Z,11076.00
2023-05-02T09:14:42.388Z,11318.00
2023-05-02T09:15:42.454Z,12526.00
2023-05-02T09:16:42.352Z,10654.00
2023-05-02T09:17:43.866Z,10141.00
2023-05-02T09:18:42.293Z,13676.00
2023-05-02T09:19:42.254Z,10992.00
2023-05-02T09:20:42.317Z,10280.00
2023-05-02T09:21:42.329Z,10644.00
2023-05-02T09:22:42.381Z,8555.00
2023-05-02T09:23:42.230Z,7630.00
2023-05-02T09:24:42.261Z,9784.00
2023-05-02T09:25:42.429Z,10417.00
2023-05-02T09:26:42.486Z,10480.00
2023-05-02T09:27:42.192Z,11033.00
2023-05-02T09:28:42.667Z,8290.00
2023-05-02T09:29:42.723Z,6770.00
2023-05-02T09:30:42.397Z,6638.00
2023-05-02T09:32:42.738Z,5894.00
2023-05-02T09:33:42.287Z,4788.00
2023-05-02T09:34:42.275Z,5506.00
2023-05-02T09:35:42.735Z,5566.00
2023-05-02T09:36:42.207Z,4700.00
2023-05-02T09:37:42.142Z,4112.00
2023-05-02T09:38:42.775Z,3884.00
2023-05-02T09:39:42.227Z,4137.00
2023-05-02T09:40:42.451Z,4046.00
2023-05-02T09:41:42.102Z,5539.00
2023-05-02T09:42:42.165Z,8027.00
2023-05-02T09:43:42.141Z,8659.00
2023-05-02T09:44:42.137Z,6903.00
2023-05-02T09:45:42.289Z,6368.00
2023-05-02T09:46:42.356Z,7671.00
2023-05-02T09:47:43.614Z,7449.00
2023-05-02T09:48:42.188Z,7593.00
2023-05-02T09:49:42.217Z,7897.00
2023-05-02T09:50:42.215Z,7667.00
2023-05-02T09:51:42.219Z,8326.00
2023-05-02T09:52:42.067Z,8943.00
2023-05-02T09:53:42.262Z,10216.00
2023-05-02T09:54:42.269Z,11730.00
2023-05-02T09:55:43.494Z,11741.00
2023-05-02T09:56:42.034Z,10611.00
2023-05-02T09:57:42.317Z,9189.00
2023-05-02T09:58:41.999Z,8237.00
2023-05-02T09:59:41.984Z,8179.00
2023-05-02T10:00:42.021Z,7965.00
2023-05-02T10:01:42.515Z,7088.00
2023-05-02T10:02:41.971Z,6597.00
2023-05-02T10:03:42.012Z,7023.00
2023-05-02T10:04:42.116Z,7259.00
2023-05-02T10:05:42.144Z,6703.00
2023-05-02T10:06:42.461Z,6548.00
2023-05-02T10:07:42.250Z,6905.00
2023-05-02T10:08:42.046Z,8111.00
2023-05-02T10:09:42.381Z,10625.00
2023-05-02T10:10:41.931Z,12146.00
2023-05-02T10:11:41.977Z,11218.00
2023-05-02T10:12:42.036Z,10887.00
2023-05-02T10:13:41.893Z,11489.00
2023-05-02T10:14:41.913Z,12065.00
2023-05-02T10:15:41.936Z,12588.00
2023-05-02T10:16:41.871Z,13256.00
2023-05-02T10:17:41.856Z,12665.00
2023-05-02T10:18:41.882Z,12721.00
2023-05-02T10:19:41.899Z,12937.00
2023-05-02T10:20:41.893Z,13780.00
2023-05-02T10:21:42.009Z,14629.00
2023-05-02T10:22:41.949Z,14640.00
2023-05-02T10:23:42.083Z,13684.00
2023-05-02T10:24:41.969Z,13317.00
2023-05-02T10:25:42.198Z,13588.00
2023-05-02T10:26:42.206Z,14050.00
2023-05-02T10:27:41.915Z,13809.00
2023-05-02T10:28:42.208Z,12555.00
2023-05-02T10:29:42.355Z,10845.00
2023-05-02T10:30:41.783Z,8945.00
2023-05-02T10:31:42.955Z,8241.00
2023-05-02T10:32:41.826Z,8261.00
2023-05-02T10:33:41.770Z,9452.00
2023-05-02T10:34:43.210Z,11917.00
2023-05-02T10:35:41.820Z,13024.00
2023-05-02T10:36:41.835Z,13136.00
2023-05-02T10:37:42.637Z,14151.00
2023-05-02T10:38:41.876Z,14693.00
2023-05-02T10:39:41.736Z,15918.00
2023-05-02T10:40:41.785Z,16820.00
2023-05-02T10:41:41.735Z,16017.00
2023-05-02T10:42:41.704Z,16295.00
2023-05-02T10:43:41.688Z,16541.00
2023-05-02T10:44:41.951Z,16267.00
2023-05-02T10:45:42.032Z,16193.00
2023-05-02T10:46:41.835Z,16652.00
2023-05-02T10:47:42.057Z,17076.00
2023-05-02T10:48:41.993Z,16938.00
2023-05-02T10:49:41.646Z,15812.00
2023-05-02T10:50:41.966Z,14573.00
2023-05-02T10:51:42.052Z,13067.00
2023-05-02T10:52:41.887Z,11773.00
2023-05-02T10:53:41.883Z,10686.00
2023-05-02T10:54:42.063Z,10211.00
2023-05-02T10:55:41.605Z,10717.00
2023-05-02T10:56:41.806Z,13413.00
2023-05-02T10:57:41.628Z,15638.00
2023-05-02T10:58:41.591Z,16709.00
2023-05-02T10:59:41.728Z,17296.00
2023-05-02T11:00:42.091Z,17731.00
2023-05-02T11:01:42.175Z,18362.00
2023-05-02T11:02:41.756Z,19974.00
2023-05-02T11:03:43.010Z,23208.00
2023-05-02T11:04:42.202Z,23700.00
2023-05-02T11:05:41.522Z,20184.00
2023-05-02T11:06:41.929Z,17562.00
2023-05-02T11:07:41.544Z,15015.00
2023-05-02T11:08:41.500Z,15541.00
2023-05-02T11:09:41.566Z,16596.00
2023-05-02T11:10:41.492Z,14869.00
2023-05-02T11:11:41.652Z,14109.00
2023-05-02T11:12:41.489Z,13267.00
2023-05-02T11:13:41.762Z,12619.00
2023-05-02T11:14:41.822Z,12742.00
2023-05-02T11:15:41.646Z,13377.00
2023-05-02T11:16:41.509Z,13490.00
2023-05-02T11:17:41.551Z,11966.00
2023-05-02T11:18:41.471Z,9997.00
2023-05-02T11:19:41.469Z,9335.00
2023-05-02T11:20:41.467Z,9516.00
2023-05-02T11:21:41.513Z,9050.00
2023-05-02T11:22:42.454Z,8425.00
2023-05-02T11:23:41.553Z,8224.00
2023-05-02T11:24:41.443Z,8716.00
2023-05-02T11:25:41.571Z,9164.00
2023-05-02T11:26:41.604Z,8514.00
2023-05-02T11:27:41.421Z,7660.00
2023-05-02T11:28:42.834Z,7574.00
2023-05-02T11:29:41.670Z,8172.00
2023-05-02T11:30:41.498Z,8555.00
2023-05-02T11:31:41.589Z,8244.00
2023-05-02T11:32:41.748Z,7503.00
2023-05-02T11:33:42.064Z,6761.00
2023-05-02T11:34:41.454Z,6356.00
2023-05-02T11:35:41.344Z,6145.00
2023-05-02T11:36:42.136Z,6126.00
2023-05-02T11:37:41.840Z,6263.00
2023-05-02T11:38:41.290Z,6267.00
2023-05-02T11:41:07.526Z,0.00
2023-05-02T11:42:07.441Z,5829.00
2023-05-02T11:43:07.606Z,6057.00
2023-05-02T11:44:07.563Z,6312.00
2023-05-02T11:45:07.705Z,6434.00
2023-05-02T11:46:07.386Z,6540.00
2023-05-02T11:47:07.379Z,6491.00
2023-05-02T11:48:07.637Z,6308.00
2023-05-02T11:49:09.205Z,6286.00
2023-05-02T11:50:07.823Z,6508.00
2023-05-02T11:51:07.532Z,7087.00
2023-05-02T11:52:07.962Z,7871.00
2023-05-02T11:53:07.949Z,8766.00
2023-05-02T11:54:07.743Z,9817.00
2023-05-02T11:55:09.714Z,10966.00
2023-05-02T11:56:08.129Z,11718.00
2023-05-02T11:57:07.135Z,11276.00
2023-05-02T11:58:07.169Z,11077.00
2023-05-02T11:59:07.230Z,11612.00
2023-05-02T12:00:07.259Z,13813.00
2023-05-02T12:01:08.241Z,14939.00
2023-05-02T12:02:07.447Z,15281.00
2023-05-02T12:03:07.517Z,16952.00
2023-05-02T12:04:07.748Z,18878.00
2023-05-02T12:05:07.220Z,18335.00
2023-05-02T12:06:07.658Z,18250.00
2023-05-02T12:07:08.087Z,16233.00
2023-05-02T12:08:07.206Z,13519.00
2023-05-02T12:09:07.248Z,12654.00
2023-05-02T12:10:07.359Z,11252.00
2023-05-02T12:11:07.365Z,9610.00
2023-05-02T12:12:07.452Z,9030.00
2023-05-02T12:13:08.893Z,9036.00
2023-05-02T12:14:07.530Z,8874.00
2023-05-02T12:15:07.586Z,8399.00
2023-05-02T12:16:07.635Z,8165.00
2023-05-02T12:17:07.681Z,8289.00
2023-05-02T12:18:07.788Z,8219.00
2023-05-02T12:19:07.796Z,8209.00
2023-05-02T12:20:07.895Z,8254.00
2023-05-02T12:21:07.923Z,8023.00
2023-05-02T12:22:07.860Z,7607.00
2023-05-02T12:23:08.039Z,7345.00
2023-05-02T12:24:07.405Z,7936.00
2023-05-02T12:25:07.817Z,9050.00
2023-05-02T12:26:07.310Z,11209.00
2023-05-02T12:27:07.874Z,10623.00
2023-05-02T12:28:07.791Z,9364.00